createdAt,value
2019-02-05T00:04:06.586Z,4.10
2019-02-05T00:09:13.350Z,4.10
2019-02-05T00:14:19.434Z,4.10
2019-02-05T00:19:25.409Z,4.10
2019-02-05T00:24:31.437Z,4.20
2019-02-05T00:29:37.844Z,4.10
2019-02-05T00:34:44.234Z,4.10
2019-02-05T00:39:50.272Z,4.10
2019-02-05T00:44:56.332Z,4.10
2019-02-05T00:50:02.334Z,4.10
2019-02-05T00:55:10.285Z,4.20
2019-02-05T01:00:22.307Z,4.20
2019-02-05T01:05:28.453Z,4.20
2019-02-05T01:10:34.513Z,4.20
2019-02-05T01:15:40.621Z,4.20
2019-02-05T01:20:46.645Z,4.20
2019-02-05T01:25:52.772Z,4.20
2019-02-05T01:30:58.857Z,4.30
2019-02-05T01:36:05.370Z,4.30
2019-02-05T01:41:12.548Z,4.30
2019-02-05T01:46:18.596Z,4.40
2019-02-05T01:51:24.641Z,4.40
2019-02-05T01:56:40.413Z,4.30
2019-02-05T02:01:38.426Z,4.40
2019-02-05T02:06:44.528Z,4.30
2019-02-05T02:11:51.040Z,4.30
2019-02-05T02:16:57.033Z,4.30
2019-02-05T02:22:03.086Z,4.40
2019-02-05T02:27:09.254Z,4.40
2019-02-05T02:32:15.294Z,4.40
2019-02-05T02:37:21.406Z,4.40
2019-02-05T02:42:27.534Z,4.40
2019-02-05T02:47:33.573Z,4.40
2019-02-05T02:52:39.633Z,4.40
2019-02-05T02:57:46.223Z,4.40
2019-02-05T03:02:52.362Z,4.40
2019-02-05T03:07:58.721Z,4.40
2019-02-05T03:13:04.760Z,4.40
2019-02-05T03:18:10.881Z,4.40
2019-02-05T03:23:17.007Z,4.40
2019-02-05T03:28:22.978Z,4.40
2019-02-05T03:33:30.362Z,4.40
2019-02-05T03:38:37.556Z,4.30
2019-02-05T03:43:43.607Z,4.20
2019-02-05T03:48:50.855Z,4.20
2019-02-05T03:54:05.440Z,4.30
2019-02-05T03:59:26.359Z,4.30
2019-02-05T04:05:02.037Z,4.30
2019-02-05T04:11:01.748Z,4.30
2019-02-05T04:16:33.519Z,4.30
2019-02-05T04:22:26.972Z,4.30
2019-02-05T04:28:00.873Z,4.20
2019-02-05T04:33:29.426Z,4.30
2019-02-05T04:39:24.012Z,4.30
2019-02-05T04:45:34.174Z,4.30
2019-02-05T04:51:12.305Z,4.30
2019-02-05T04:56:36.684Z,4.30
2019-02-05T05:02:00.172Z,4.30
2019-02-05T05:07:46.150Z,4.20
2019-02-05T05:12:52.272Z,4.20
2019-02-05T05:17:58.475Z,4.20
2019-02-05T05:23:05.183Z,4.20
2019-02-05T05:28:11.203Z,4.30
2019-02-05T05:33:17.346Z,4.30
2019-02-05T05:38:24.145Z,4.30
2019-02-05T05:43:30.230Z,4.30
2019-02-05T05:48:36.342Z,4.30
2019-02-05T05:53:42.461Z,4.30
2019-02-05T05:58:48.453Z,4.30
2019-02-05T06:03:54.527Z,4.30
2019-02-05T06:09:00.537Z,4.30
2019-02-05T06:14:08.029Z,4.30
2019-02-05T06:19:14.130Z,4.30
2019-02-05T06:24:20.637Z,4.30
2019-02-05T06:29:26.716Z,4.30
2019-02-05T06:34:32.730Z,4.30
2019-02-05T06:39:38.926Z,4.40
2019-02-05T06:44:45.028Z,4.40
2019-02-05T06:49:51.049Z,4.50
2019-02-05T06:54:57.133Z,4.40
2019-02-05T07:00:03.431Z,4.50
2019-02-05T07:05:10.505Z,4.40
2019-02-05T07:10:18.619Z,4.40
2019-02-05T07:15:24.795Z,4.50
2019-02-05T07:20:31.307Z,4.40
2019-02-05T07:25:37.477Z,4.50
2019-02-05T07:30:43.577Z,4.50
2019-02-05T07:35:49.647Z,4.50
2019-02-05T07:40:55.833Z,4.50
2019-02-05T07:46:02.017Z,4.40
2019-02-05T07:51:08.471Z,4.50
2019-02-05T07:56:14.604Z,4.50
2019-02-05T08:01:20.771Z,4.50
2019-02-05T08:06:26.966Z,4.50
2019-02-05T08:11:33.173Z,4.60
2019-02-05T08:16:39.530Z,4.60
2019-02-05T08:21:46.462Z,4.60
2019-02-05T08:26:52.589Z,4.60
2019-02-05T08:31:58.751Z,4.60
2019-02-05T08:37:04.874Z,4.50
2019-02-05T08:42:11.583Z,4.50
2019-02-05T08:47:17.690Z,4.60
2019-02-05T08:52:23.713Z,4.60
2019-02-05T08:57:29.848Z,4.60
2019-02-05T09:02:36.083Z,4.50
2019-02-05T09:07:42.523Z,4.60
2019-02-05T09:12:48.649Z,4.60
2019-02-05T09:17:55.639Z,4.60
2019-02-05T09:23:01.779Z,4.60
2019-02-05T09:28:08.016Z,4.60
2019-02-05T09:33:14.501Z,4.60
2019-02-05T09:38:20.763Z,4.70
2019-02-05T09:43:26.963Z,4.70
2019-02-05T09:48:33.115Z,4.70
2019-02-05T09:53:39.170Z,4.80
2019-02-05T09:58:45.298Z,4.80
2019-02-05T10:03:51.475Z,4.80
2019-02-05T10:08:57.979Z,4.90
2019-02-05T10:14:04.249Z,5.00
2019-02-05T10:19:10.354Z,5.00
2019-02-05T10:24:16.694Z,5.00
2019-02-05T10:29:22.907Z,5.00
2019-02-05T10:34:34.242Z,5.10
2019-02-05T10:39:37.444Z,5.10
2019-02-05T10:44:43.505Z,5.20
2019-02-05T10:49:49.719Z,5.40
2019-02-05T10:54:55.847Z,5.40
2019-02-05T11:00:08.971Z,5.30
2019-02-05T11:05:11.081Z,5.40
2019-02-05T11:10:17.396Z,5.40
2019-02-05T11:15:25.761Z,5.50
2019-02-05T11:20:31.874Z,5.50
2019-02-05T11:25:38.357Z,5.50
2019-02-05T11:30:45.629Z,5.50
2019-02-05T11:35:52.179Z,5.40
2019-02-05T11:40:58.316Z,5.40
2019-02-05T11:46:04.463Z,5.50
2019-02-05T11:51:10.599Z,5.50
2019-02-05T11:56:17.154Z,5.60
2019-02-05T12:01:38.119Z,5.50
2019-02-05T12:06:35.602Z,5.40
2019-02-05T12:11:42.076Z,5.50
2019-02-05T12:16:49.158Z,5.70
2019-02-05T12:21:55.293Z,5.70
2019-02-05T12:27:01.439Z,5.70
2019-02-05T12:32:07.618Z,5.70
2019-02-05T12:37:14.071Z,5.70
2019-02-05T12:42:20.238Z,5.60
2019-02-05T12:47:26.395Z,5.70
2019-02-05T12:52:32.448Z,5.70
2019-02-05T12:57:38.542Z,5.70
2019-02-05T13:02:44.754Z,5.60
2019-02-05T13:07:50.898Z,5.50
2019-02-05T13:12:57.604Z,5.60
2019-02-05T13:18:03.820Z,5.70
2019-02-05T13:23:10.386Z,5.60
2019-02-05T13:28:16.794Z,5.60
2019-02-05T13:33:23.369Z,5.60
2019-02-05T13:38:29.532Z,5.50
2019-02-05T13:43:35.748Z,5.50
2019-02-05T13:48:41.898Z,5.60
2019-02-05T13:53:48.046Z,5.60
2019-02-05T13:58:54.270Z,5.60
2019-02-05T14:04:00.425Z,5.70
2019-02-05T14:09:11.898Z,5.80
2019-02-05T14:14:18.158Z,5.70
2019-02-05T14:19:24.417Z,5.70
2019-02-05T14:24:30.587Z,5.80
2019-02-05T14:29:36.714Z,5.70
2019-02-05T14:34:42.846Z,5.70
2019-02-05T14:39:49.566Z,5.80
2019-02-05T14:44:56.079Z,5.90
2019-02-05T14:50:02.237Z,5.80
2019-02-05T14:55:08.473Z,5.90
2019-02-05T15:00:18.628Z,5.80
2019-02-05T15:05:24.884Z,5.90
2019-02-05T15:10:32.112Z,6.00
2019-02-05T15:15:38.365Z,6.00
2019-02-05T15:20:46.271Z,6.00
2019-02-05T15:25:52.511Z,6.10
2019-02-05T15:30:58.677Z,6.10
2019-02-05T15:36:14.256Z,6.10
2019-02-05T15:41:20.486Z,6.10
2019-02-05T15:46:26.726Z,6.20
2019-02-05T15:51:32.790Z,6.20
2019-02-05T15:56:39.099Z,6.20
2019-02-05T16:01:45.675Z,6.20
2019-02-05T16:06:51.859Z,6.20
2019-02-05T16:11:58.122Z,6.20
2019-02-05T16:17:04.354Z,6.20
2019-02-05T16:22:10.514Z,6.20
2019-02-05T16:27:16.660Z,6.20
2019-02-05T16:32:22.747Z,6.10
2019-02-05T16:37:29.032Z,6.20
2019-02-05T16:42:35.179Z,6.20
2019-02-05T16:47:41.319Z,6.10
2019-02-05T16:52:47.486Z,6.20
2019-02-05T16:57:53.775Z,6.20
2019-02-05T17:02:59.949Z,6.20
2019-02-05T17:08:06.322Z,6.20
2019-02-05T17:13:12.498Z,6.10
2019-02-05T17:18:23.630Z,6.20
2019-02-05T17:23:26.551Z,6.10
2019-02-05T17:28:32.681Z,6.10
2019-02-05T17:33:40.323Z,6.00
2019-02-05T17:38:46.442Z,6.00
2019-02-05T17:43:52.727Z,6.00
2019-02-05T17:48:58.895Z,5.90
2019-02-05T17:54:05.879Z,5.90
2019-02-05T17:59:12.103Z,5.90
2019-02-05T18:04:18.258Z,5.80
2019-02-05T18:09:26.564Z,5.70
2019-02-05T18:14:32.678Z,5.70
2019-02-05T18:19:38.782Z,5.70
2019-02-05T18:24:45.044Z,5.60
2019-02-05T18:29:51.180Z,5.50
2019-02-05T18:34:58.283Z,5.50
2019-02-05T18:40:05.310Z,5.40
2019-02-05T18:45:13.170Z,5.40
2019-02-05T18:50:22.346Z,5.40
2019-02-05T18:55:29.398Z,5.30
2019-02-05T19:00:38.797Z,5.20
2019-02-05T19:05:45.210Z,5.20
2019-02-05T19:10:51.385Z,5.40
2019-02-05T19:15:57.567Z,5.40
2019-02-05T19:21:04.173Z,5.40
2019-02-05T19:26:35.772Z,5.50
2019-02-05T19:31:44.625Z,5.50
2019-02-05T19:36:51.598Z,5.50
2019-02-05T19:41:57.746Z,5.50
2019-02-05T19:47:06.895Z,5.60
2019-02-05T19:52:13.103Z,5.50
2019-02-05T19:57:19.269Z,5.60
2019-02-05T20:02:25.642Z,5.60
2019-02-05T20:07:31.901Z,5.60
2019-02-05T20:12:38.101Z,5.70
2019-02-05T20:17:44.263Z,5.70
2019-02-05T20:22:50.442Z,5.70
2019-02-05T20:27:56.650Z,5.70
2019-02-05T20:33:03.331Z,5.70
2019-02-05T20:38:09.935Z,5.70
2019-02-05T20:43:16.159Z,5.70
2019-02-05T20:48:22.286Z,5.70
2019-02-05T20:53:29.901Z,5.60
2019-02-05T20:58:36.066Z,5.60
2019-02-05T21:03:43.155Z,5.60
2019-02-05T21:08:49.316Z,5.50
2019-02-05T21:13:55.586Z,5.50
2019-02-05T21:19:01.633Z,5.50
2019-02-05T21:24:07.827Z,5.50
2019-02-05T21:29:14.011Z,5.50
2019-02-05T21:34:20.156Z,5.50
2019-02-05T21:39:26.608Z,5.50
2019-02-05T21:44:32.686Z,5.40
2019-02-05T21:49:38.766Z,5.40
2019-02-05T21:54:44.943Z,5.30
2019-02-05T21:59:51.031Z,5.40
2019-02-05T22:04:57.158Z,5.40
2019-02-05T22:10:03.343Z,5.40
2019-02-05T22:15:14.400Z,5.40
2019-02-05T22:20:22.473Z,5.30
2019-02-05T22:25:28.890Z,5.30
2019-02-05T22:30:35.155Z,5.30
2019-02-05T22:35:41.603Z,5.30
2019-02-05T22:40:47.980Z,5.30
2019-02-05T22:45:54.364Z,5.20
2019-02-05T22:51:00.834Z,5.20
2019-02-05T22:56:07.251Z,5.20
2019-02-05T23:01:37.840Z,5.10
2019-02-05T23:07:10.191Z,5.10
2019-02-05T23:12:32.892Z,5.10
2019-02-05T23:17:39.423Z,5.00
2019-02-05T23:22:45.650Z,4.90
2019-02-05T23:27:52.052Z,4.90
2019-02-05T23:32:58.921Z,4.90
2019-02-05T23:38:05.898Z,4.90
2019-02-05T23:43:11.927Z,4.80
2019-02-05T23:48:17.904Z,4.80
2019-02-05T23:53:24.125Z,4.70
2019-02-05T23:58:30.227Z,4.70
